Time;durP1;ratioP1;P1;durP2;ratioP2;P2;SDS_P1;SDS_P2;PMS_P1;PMS_P2;Temp;Humidity;BMP_temperature;BMP_pressure;BME280_temperature;BME280_humidity;BME280_pressure;Samples;Min_cycle;Max_cycle;Signal;HPM_P1;HPM_P2
2022/03/26 00:01:16;;;;;;;6.05;2.30;;;21.00;99.90;;;;;;5018411;28;20299;-65
2022/03/26 00:03:43;;;;;;;6.00;2.10;;;21.00;99.90;;;;;;5019491;28;20029;-67
2022/03/26 00:06:10;;;;;;;5.85;2.20;;;21.10;99.90;;;;;;5017884;28;20022;-67
2022/03/26 00:08:37;;;;;;;3.72;1.83;;;21.20;99.90;;;;;;5018727;28;20025;-67
2022/03/26 00:11:04;;;;;;;3.67;1.63;;;21.30;99.90;;;;;;5000689;28;20142;-68
2022/03/26 00:13:31;;;;;;;3.67;2.42;;;21.40;99.90;;;;;;5018478;28;20481;-67
2022/03/26 00:15:58;;;;;;;4.10;1.60;;;21.40;99.90;;;;;;5020343;28;20024;-66
2022/03/26 00:18:25;;;;;;;6.20;2.10;;;21.40;99.90;;;;;;5015650;28;20029;-64
2022/03/26 00:20:52;;;;;;;4.07;1.52;;;21.50;99.90;;;;;;5015667;28;20029;-67
2022/03/26 00:23:19;;;;;;;3.45;1.70;;;21.50;99.90;;;;;;5002964;28;20033;-68
2022/03/26 00:25:46;;;;;;;2.00;1.27;;;21.60;99.90;;;;;;5018420;28;20029;-67
2022/03/26 00:28:13;;;;;;;2.63;1.88;;;21.60;99.90;;;;;;5017143;28;20224;-67
2022/03/26 00:30:40;;;;;;;4.03;1.48;;;21.70;99.90;;;;;;5018143;28;20505;-67
2022/03/26 00:33:07;;;;;;;3.03;1.60;;;21.80;99.90;;;;;;5020765;28;20029;-65
2022/03/26 00:35:35;;;;;;;2.67;1.45;;;21.70;99.90;;;;;;5017572;28;20056;-66
2022/03/26 00:38:03;;;;;;;2.92;1.30;;;21.70;99.90;;;;;;5019557;28;20136;-67
2022/03/26 00:40:30;;;;;;;2.33;1.35;;;21.70;99.90;;;;;;5019195;28;20017;-66
2022/03/26 00:42:58;;;;;;;5.97;1.60;;;21.70;99.90;;;;;;5018824;28;20361;-65
2022/03/26 00:45:26;;;;;;;3.55;1.70;;;21.70;99.90;;;;;;5017482;28;20033;-64
2022/03/26 00:47:55;;;;;;;3.92;1.58;;;21.70;99.90;;;;;;5018506;28;20616;-65
2022/03/26 00:50:23;;;;;;;2.47;1.50;;;21.80;99.90;;;;;;4324952;28;10000590;-68
2022/03/26 00:52:50;;;;;;;2.83;1.42;;;21.80;99.90;;;;;;5018516;28;20418;-68
2022/03/26 00:55:17;;;;;;;2.70;1.30;;;21.90;99.90;;;;;;5011474;28;20096;-65
2022/03/26 00:57:44;;;;;;;2.47;1.42;;;21.80;99.90;;;;;;5015839;28;20021;-67
2022/03/26 01:00:12;;;;;;;3.67;1.60;;;21.90;99.90;;;;;;5020791;28;20025;-66
2022/03/26 01:02:39;;;;;;;3.15;1.45;;;21.80;99.90;;;;;;5015548;28;20075;-65
2022/03/26 01:05:07;;;;;;;2.80;1.40;;;21.60;99.90;;;;;;5019580;28;20026;-65
2022/03/26 01:07:34;;;;;;;5.72;1.85;;;21.50;99.90;;;;;;5014334;28;20095;-65
2022/03/26 01:10:01;;;;;;;11.70;8.30;;;21.40;99.90;;;;;;5016308;28;20056;-66
2022/03/26 01:12:28;;;;;;;4.43;2.22;;;21.30;99.90;;;;;;5020460;28;20616;-63
2022/03/26 01:14:55;;;;;;;6.07;1.75;;;21.10;99.90;;;;;;5010052;28;20539;-65
2022/03/26 01:17:22;;;;;;;5.82;1.88;;;20.90;99.90;;;;;;5012437;28;20273;-68
2022/03/26 01:19:49;;;;;;;7.78;4.00;;;20.70;99.90;;;;;;5009621;28;20014;-68
2022/03/26 01:22:16;;;;;;;4.53;2.47;;;20.50;99.90;;;;;;5000796;28;20439;-64
2022/03/26 01:24:43;;;;;;;5.22;1.73;;;20.30;99.90;;;;;;5019343;28;20025;-69
2022/03/26 01:27:10;;;;;;;8.80;1.83;;;20.20;99.90;;;;;;5017472;28;20855;-70
2022/03/26 01:29:38;;;;;;;4.57;1.55;;;20.20;99.90;;;;;;5004442;28;20059;-68
2022/03/26 01:32:09;;;;;;;5.47;1.80;;;20.10;99.90;;;;;;5025792;28;20169;-69
2022/03/26 01:34:37;;;;;;;5.38;1.83;;;20.10;99.90;;;;;;5023381;28;20121;-66
2022/03/26 01:37:06;;;;;;;3.22;1.50;;;20.10;99.90;;;;;;5026214;28;20433;-66
2022/03/26 01:39:33;;;;;;;4.85;1.80;;;20.10;99.90;;;;;;5026363;28;20053;-65
2022/03/26 01:42:05;;;;;;;3.17;2.30;;;20.00;99.90;;;;;;5028326;28;20084;-66
2022/03/26 01:44:32;;;;;;;5.53;3.38;;;19.80;99.90;;;;;;5025837;28;20095;-66
2022/03/26 01:47:03;;;;;;;6.75;5.10;;;19.70;99.90;;;;;;5027901;28;20037;-69
2022/03/26 01:49:31;;;;;;;6.35;3.05;;;19.60;99.90;;;;;;5026702;28;20461;-67
2022/03/26 01:51:58;;;;;;;12.98;3.83;;;19.60;99.90;;;;;;5027075;28;20029;-68
2022/03/26 01:54:27;;;;;;;7.18;2.67;;;19.60;99.90;;;;;;5026416;28;20460;-67
2022/03/26 01:56:55;;;;;;;2.70;1.70;;;19.60;99.90;;;;;;5023861;28;20068;-67
2022/03/26 01:59:27;;;;;;;7.47;3.33;;;19.60;99.90;;;;;;5025029;28;20148;-65
2022/03/26 02:01:54;;;;;;;4.13;1.98;;;19.70;99.90;;;;;;5024051;28;20430;-66
2022/03/26 02:04:21;;;;;;;4.93;2.38;;;19.60;99.90;;;;;;5027581;28;20039;-66
2022/03/26 02:06:49;;;;;;;4.20;2.20;;;19.70;99.90;;;;;;5027277;28;20026;-68
2022/03/26 02:09:16;;;;;;;4.22;1.88;;;19.90;99.90;;;;;;5024057;28;20444;-67
2022/03/26 02:11:46;;;;;;;3.67;2.40;;;20.00;99.90;;;;;;5024889;28;20029;-64
2022/03/26 02:14:14;;;;;;;4.35;2.28;;;20.10;99.90;;;;;;5023894;28;20040;-65
2022/03/26 02:16:43;;;;;;;7.85;3.10;;;20.20;99.90;;;;;;5024507;28;20064;-66
2022/03/26 02:19:10;;;;;;;6.82;2.80;;;20.30;99.90;;;;;;5022692;28;20037;-68
2022/03/26 02:21:38;;;;;;;6.63;2.15;;;20.40;99.90;;;;;;5024698;28;20067;-64
2022/03/26 02:24:07;;;;;;;2.95;1.92;;;20.30;99.90;;;;;;5028759;28;20025;-66
2022/03/26 02:26:35;;;;;;;3.90;1.95;;;20.20;99.90;;;;;;5023750;28;20025;-66
2022/03/26 02:29:08;;;;;;;4.25;2.50;;;20.20;99.90;;;;;;5025791;28;20029;-67
2022/03/26 02:31:36;;;;;;;4.25;1.98;;;20.10;99.90;;;;;;5022918;28;20044;-66
2022/03/26 02:34:05;;;;;;;6.25;2.75;;;20.20;99.90;;;;;;5026974;28;20163;-66
2022/03/26 02:36:33;;;;;;;5.65;1.95;;;20.20;99.90;;;;;;5024628;28;20029;-65
2022/03/26 02:39:00;;;;;;;4.32;2.20;;;20.20;99.90;;;;;;5024833;28;20037;-64
2022/03/26 02:41:27;;;;;;;3.10;1.80;;;20.30;99.90;;;;;;5022933;28;20030;-67
2022/03/26 02:43:54;;;;;;;3.42;1.80;;;20.40;99.90;;;;;;5026049;28;20037;-66
2022/03/26 02:46:20;;;;;;;2.38;2.17;;;20.50;99.90;;;;;;5024725;28;20044;-68
2022/03/26 02:48:47;;;;;;;4.57;1.83;;;20.50;99.90;;;;;;5026991;28;20805;-66
2022/03/26 02:51:15;;;;;;;2.63;1.50;;;20.40;99.90;;;;;;5022058;28;20037;-63
2022/03/26 02:53:42;;;;;;;3.85;1.30;;;20.40;99.90;;;;;;5028898;28;20528;-64
2022/03/26 02:56:09;;;;;;;2.33;1.20;;;20.50;99.90;;;;;;5021362;28;20076;-66
2022/03/26 02:58:36;;;;;;;4.18;1.50;;;20.60;99.90;;;;;;5022143;28;20021;-64
2022/03/26 03:01:03;;;;;;;4.05;1.50;;;20.60;99.90;;;;;;5024523;28;20370;-64
2022/03/26 03:03:30;;;;;;;2.30;1.58;;;20.60;99.90;;;;;;5022592;28;20065;-63
2022/03/26 03:05:58;;;;;;;4.25;1.80;;;20.60;99.90;;;;;;5024433;28;20022;-63
2022/03/26 03:08:25;;;;;;;2.67;1.80;;;20.50;99.90;;;;;;5022152;28;21396;-64
2022/03/26 03:10:53;;;;;;;3.58;2.17;;;20.50;99.90;;;;;;5023027;28;20088;-65
2022/03/26 03:13:21;;;;;;;4.55;2.35;;;20.50;99.90;;;;;;5022890;28;20029;-65
2022/03/26 03:15:52;;;;;;;3.47;1.65;;;20.70;99.90;;;;;;5023040;28;20545;-67
2022/03/26 03:18:19;;;;;;;3.33;1.85;;;20.60;99.90;;;;;;5019248;28;20033;-66
2022/03/26 03:20:46;;;;;;;6.22;2.33;;;20.70;99.90;;;;;;5022780;28;20032;-66
2022/03/26 03:23:13;;;;;;;4.10;2.33;;;20.80;99.90;;;;;;5023793;28;20026;-65
2022/03/26 03:25:41;;;;;;;3.00;2.00;;;20.80;99.90;;;;;;5022089;28;20120;-68
2022/03/26 03:28:08;;;;;;;3.53;2.38;;;20.90;99.90;;;;;;5022484;28;20038;-65
2022/03/26 03:30:36;;;;;;;3.28;1.90;;;21.10;99.90;;;;;;5022944;28;20030;-65
2022/03/26 03:33:03;;;;;;;5.05;2.10;;;21.20;99.90;;;;;;5021777;28;20067;-65
2022/03/26 03:35:30;;;;;;;3.95;2.53;;;21.20;99.90;;;;;;5015707;28;20449;-67
2022/03/26 03:37:57;;;;;;;5.30;2.97;;;21.50;99.90;;;;;;5020306;28;20144;-65
2022/03/26 03:40:24;;;;;;;4.65;2.75;;;21.70;99.90;;;;;;5020119;28;20030;-66
2022/03/26 03:42:53;;;;;;;4.43;2.13;;;22.00;99.90;;;;;;5020370;28;20059;-65
2022/03/26 03:45:20;;;;;;;4.78;2.15;;;22.20;99.90;;;;;;5022237;28;20017;-63
2022/03/26 03:47:47;;;;;;;3.03;2.10;;;22.30;99.90;;;;;;5020233;28;20078;-65
2022/03/26 03:50:15;;;;;;;3.45;2.20;;;22.20;99.90;;;;;;5020350;28;20033;-65
2022/03/26 03:52:42;;;;;;;5.03;1.95;;;22.10;99.90;;;;;;5020198;28;20671;-65
2022/03/26 03:55:09;;;;;;;4.03;2.03;;;22.10;99.90;;;;;;5020423;28;20377;-66
2022/03/26 03:57:43;;;;;;;5.15;2.35;;;22.10;99.90;;;;;;5021068;28;20483;-66
2022/03/26 04:00:13;;;;;;;3.13;1.90;;;22.10;99.90;;;;;;5018580;28;20049;-65
2022/03/26 04:02:41;;;;;;;4.07;2.58;;;22.10;99.90;;;;;;5020749;28;20105;-64
2022/03/26 04:05:10;;;;;;;5.40;3.15;;;22.20;99.90;;;;;;5021684;28;20411;-67
2022/03/26 04:07:40;;;;;;;40.80;15.82;;;22.20;99.90;;;;;;5019051;28;20309;-65
2022/03/26 04:10:09;;;;;;;5.57;2.90;;;22.20;99.90;;;;;;5019975;28;20024;-66
2022/03/26 04:12:41;;;;;;;12.55;9.05;;;22.20;99.90;;;;;;5019487;28;20123;-65
2022/03/26 04:15:09;;;;;;;5.43;4.10;;;22.10;99.90;;;;;;5019219;28;20053;-64
2022/03/26 04:17:36;;;;;;;6.43;3.53;;;22.10;99.90;;;;;;5019191;28;20345;-64
2022/03/26 04:20:09;;;;;;;4.47;2.65;;;22.00;99.90;;;;;;5019624;28;20038;-66
2022/03/26 04:22:37;;;;;;;16.88;14.48;;;22.00;99.90;;;;;;5019293;28;20051;-66
2022/03/26 04:25:05;;;;;;;13.57;6.85;;;21.90;99.90;;;;;;5019816;28;20057;-64
2022/03/26 04:27:33;;;;;;;5.97;2.60;;;21.80;99.90;;;;;;5019575;28;20376;-67
2022/03/26 04:30:00;;;;;;;4.43;2.70;;;21.70;99.90;;;;;;5018929;28;20079;-63
2022/03/26 04:32:27;;;;;;;6.50;3.33;;;21.60;99.90;;;;;;5017572;28;20314;-64
2022/03/26 04:34:54;;;;;;;7.03;3.75;;;21.60;99.90;;;;;;5019103;28;20112;-64
2022/03/26 04:37:21;;;;;;;6.93;3.35;;;21.40;99.90;;;;;;5016521;28;20037;-65
2022/03/26 04:39:48;;;;;;;4.32;2.38;;;21.30;99.90;;;;;;5002068;28;20013;-64
2022/03/26 04:42:15;;;;;;;4.45;2.50;;;21.20;99.90;;;;;;5019626;28;20026;-66
2022/03/26 04:44:42;;;;;;;5.55;2.72;;;20.90;99.90;;;;;;5001286;28;20029;-68
2022/03/26 04:47:09;;;;;;;4.95;1.83;;;20.70;99.90;;;;;;5020413;28;20017;-65
2022/03/26 04:49:36;;;;;;;6.80;2.22;;;20.60;99.90;;;;;;5018329;28;20072;-69
2022/03/26 04:52:03;;;;;;;6.55;2.10;;;20.40;99.90;;;;;;5018649;28;20075;-66
2022/03/26 04:54:30;;;;;;;3.70;1.83;;;20.20;99.90;;;;;;5021703;28;20117;-69
2022/03/26 04:56:57;;;;;;;4.82;1.77;;;20.00;99.90;;;;;;5020738;28;20108;-66
2022/03/26 04:59:24;;;;;;;4.55;1.52;;;19.90;99.90;;;;;;5022618;28;20026;-67
2022/03/26 05:01:51;;;;;;;3.67;2.00;;;19.80;99.90;;;;;;5020666;28;20048;-67
2022/03/26 05:04:18;;;;;;;4.72;1.67;;;19.70;99.90;;;;;;5025034;28;20032;-65
2022/03/26 05:06:45;;;;;;;4.38;2.38;;;19.70;99.90;;;;;;5026711;28;20029;-69
2022/03/26 05:09:12;;;;;;;2.75;1.33;;;19.60;99.90;;;;;;5025534;28;20045;-67
2022/03/26 05:11:39;;;;;;;2.33;1.42;;;19.60;99.90;;;;;;5022615;28;20029;-66
2022/03/26 05:14:06;;;;;;;4.85;2.17;;;19.70;99.90;;;;;;5021867;28;20032;-67
2022/03/26 05:16:33;;;;;;;2.90;1.52;;;19.70;99.90;;;;;;5022902;28;20025;-65
2022/03/26 05:19:00;;;;;;;3.63;1.55;;;19.70;99.90;;;;;;5023044;28;20201;-68
2022/03/26 05:21:27;;;;;;;5.15;3.25;;;19.60;99.90;;;;;;5024431;28;20547;-67
2022/03/26 05:23:54;;;;;;;4.30;2.67;;;19.50;99.90;;;;;;5023898;28;20763;-67
2022/03/26 05:26:22;;;;;;;2.28;1.70;;;19.30;99.90;;;;;;5022386;28;20039;-69
2022/03/26 05:28:50;;;;;;;4.97;2.08;;;19.20;99.90;;;;;;5021100;28;20029;-68
2022/03/26 05:31:17;;;;;;;2.83;1.75;;;19.10;99.90;;;;;;5022508;28;20129;-66
2022/03/26 05:33:44;;;;;;;3.08;1.42;;;19.10;99.90;;;;;;5016897;28;20020;-69
2022/03/26 05:36:11;;;;;;;2.63;1.40;;;19.10;99.90;;;;;;5017721;28;20089;-66
2022/03/26 05:38:38;;;;;;;3.53;1.90;;;19.10;99.90;;;;;;5019840;28;20099;-68
2022/03/26 05:41:05;;;;;;;4.45;1.45;;;19.10;99.90;;;;;;5019571;28;20573;-70
2022/03/26 05:43:32;;;;;;;4.97;3.03;;;19.10;99.90;;;;;;5021699;28;20041;-65
2022/03/26 05:45:59;;;;;;;5.55;3.75;;;19.30;99.90;;;;;;5020216;28;20025;-65
2022/03/26 05:48:26;;;;;;;6.07;4.90;;;19.30;99.90;;;;;;5019421;28;20108;-64
2022/03/26 05:50:53;;;;;;;9.20;6.63;;;19.30;99.90;;;;;;5020419;28;20059;-65
2022/03/26 05:53:20;;;;;;;12.43;11.20;;;19.30;99.90;;;;;;5020818;28;20391;-67
2022/03/26 05:55:47;;;;;;;10.20;9.25;;;19.30;99.90;;;;;;5022145;28;20025;-65
2022/03/26 05:58:15;;;;;;;13.68;11.60;;;19.40;99.90;;;;;;5021082;28;20021;-67
2022/03/26 06:00:42;;;;;;;8.43;6.38;;;19.40;99.90;;;;;;5021839;28;20127;-66
2022/03/26 06:03:09;;;;;;;5.25;4.65;;;19.40;99.90;;;;;;5020376;28;20013;-64
2022/03/26 06:05:38;;;;;;;4.75;2.67;;;19.30;99.90;;;;;;5021168;28;20459;-66
2022/03/26 06:08:07;;;;;;;4.78;2.85;;;19.30;99.90;;;;;;5020382;28;20055;-69
2022/03/26 06:10:35;;;;;;;4.63;2.70;;;19.30;99.90;;;;;;5021860;28;20807;-67
2022/03/26 06:13:02;;;;;;;5.90;3.45;;;19.40;99.90;;;;;;5021999;28;20456;-63
2022/03/26 06:15:29;;;;;;;8.48;3.35;;;19.50;99.90;;;;;;5020966;28;20026;-63
2022/03/26 06:17:56;;;;;;;5.50;3.30;;;19.50;99.90;;;;;;5016918;28;20030;-63
2022/03/26 06:20:23;;;;;;;5.00;2.78;;;19.50;99.90;;;;;;5020702;28;20480;-64
2022/03/26 06:22:50;;;;;;;5.25;2.22;;;19.60;99.90;;;;;;5020834;28;20106;-62
2022/03/26 06:25:17;;;;;;;4.28;2.08;;;19.60;99.90;;;;;;5021126;28;20156;-63
2022/03/26 06:27:46;;;;;;;6.38;1.98;;;19.70;99.90;;;;;;5019712;28;20549;-63
2022/03/26 06:30:13;;;;;;;4.72;1.83;;;19.80;99.90;;;;;;5020705;28;20508;-64
2022/03/26 06:32:40;;;;;;;4.68;1.70;;;19.80;99.90;;;;;;5019985;28;20034;-63
2022/03/26 06:35:08;;;;;;;6.32;1.85;;;19.80;99.90;;;;;;5019696;28;20044;-63
2022/03/26 06:37:35;;;;;;;3.83;1.80;;;19.80;99.90;;;;;;5022294;28;20125;-65
2022/03/26 06:40:03;;;;;;;5.10;1.67;;;19.80;99.90;;;;;;5023707;28;20624;-67
2022/03/26 06:42:30;;;;;;;6.25;2.00;;;19.80;99.90;;;;;;5023908;28;20064;-64
2022/03/26 06:45:00;;;;;;;4.32;1.80;;;19.80;99.90;;;;;;5022412;28;20030;-62
2022/03/26 06:47:28;;;;;;;5.00;2.40;;;19.80;99.90;;;;;;5021339;28;20057;-65
2022/03/26 06:49:55;;;;;;;3.25;1.70;;;19.90;99.90;;;;;;5003154;28;20039;-64
2022/03/26 06:52:23;;;;;;;5.47;2.13;;;19.80;99.90;;;;;;5003687;28;20112;-70
2022/03/26 06:54:54;;;;;;;4.70;2.75;;;19.80;99.90;;;;;;5020983;28;20029;-69
2022/03/26 06:57:20;;;;;;;5.85;2.25;;;19.60;99.90;;;;;;5022608;28;20025;-63
2022/03/26 06:59:48;;;;;;;4.20;1.80;;;19.60;99.90;;;;;;5023697;28;20143;-69
2022/03/26 07:02:15;;;;;;;5.78;2.53;;;19.50;99.90;;;;;;5023210;28;20372;-63
2022/03/26 07:04:42;;;;;;;5.10;2.03;;;19.50;99.90;;;;;;5021948;28;20726;-62
2022/03/26 07:07:11;;;;;;;5.63;2.38;;;19.50;99.90;;;;;;5022794;28;20472;-69
2022/03/26 07:09:38;;;;;;;4.43;1.67;;;19.60;99.90;;;;;;5022742;28;20029;-66
2022/03/26 07:12:06;;;;;;;4.35;1.92;;;19.60;99.90;;;;;;5021677;28;20144;-63
2022/03/26 07:14:33;;;;;;;5.10;1.60;;;19.40;99.90;;;;;;5022649;28;20407;-63
2022/03/26 07:17:00;;;;;;;4.53;1.30;;;19.30;99.90;;;;;;5022488;28;20745;-63
2022/03/26 07:19:27;;;;;;;6.80;2.28;;;19.30;99.90;;;;;;5020797;28;20034;-68
2022/03/26 07:21:54;;;;;;;3.47;1.75;;;19.20;99.90;;;;;;5022878;28;20033;-67
2022/03/26 07:24:21;;;;;;;3.47;1.40;;;19.10;99.90;;;;;;5022865;28;20124;-67
2022/03/26 07:26:48;;;;;;;5.03;1.50;;;19.00;99.90;;;;;;5018849;28;20029;-64
2022/03/26 07:29:15;;;;;;;4.03;1.70;;;18.90;99.90;;;;;;5020296;28;20550;-63
2022/03/26 07:31:42;;;;;;;3.33;1.73;;;18.80;99.90;;;;;;5019139;28;20033;-64
2022/03/26 07:34:11;;;;;;;2.60;1.70;;;18.80;99.90;;;;;;5017825;28;20017;-67
2022/03/26 07:36:38;;;;;;;7.80;2.00;;;18.70;99.90;;;;;;5017951;28;20048;-64
2022/03/26 07:39:05;;;;;;;2.70;1.70;;;18.70;99.90;;;;;;5015272;28;20059;-67
2022/03/26 07:41:32;;;;;;;4.60;1.63;;;18.60;99.90;;;;;;5013270;28;20128;-65
2022/03/26 07:43:59;;;;;;;6.78;1.75;;;18.50;99.90;;;;;;5015724;28;20025;-63
2022/03/26 07:46:26;;;;;;;5.82;1.63;;;18.50;99.90;;;;;;5013796;28;20624;-67
2022/03/26 07:48:53;;;;;;;5.43;1.80;;;18.50;99.90;;;;;;5015238;28;20119;-66
2022/03/26 07:51:20;;;;;;;4.28;2.35;;;18.50;99.90;;;;;;5016418;28;20109;-66
2022/03/26 07:53:46;;;;;;;3.70;1.73;;;18.50;99.90;;;;;;5018413;28;20022;-67
2022/03/26 07:56:13;;;;;;;3.88;1.80;;;18.50;99.90;;;;;;5018181;28;20550;-68
2022/03/26 07:58:40;;;;;;;5.47;1.70;;;18.50;99.90;;;;;;5013118;28;20047;-66
2022/03/26 08:01:08;;;;;;;4.78;1.88;;;18.50;99.90;;;;;;5013481;28;20487;-67
2022/03/26 08:03:35;;;;;;;3.47;1.40;;;18.50;99.90;;;;;;5015100;28;20810;-69
2022/03/26 08:06:02;;;;;;;6.03;1.98;;;18.40;99.90;;;;;;5014751;28;20258;-69
2022/03/26 08:08:29;;;;;;;5.72;1.75;;;18.30;99.90;;;;;;4997112;28;20033;-67
2022/03/26 08:10:56;;;;;;;2.58;1.70;;;18.30;99.90;;;;;;5016578;28;20033;-67
2022/03/26 08:13:22;;;;;;;8.25;3.63;;;18.30;99.90;;;;;;5014804;28;20031;-65
2022/03/26 08:15:49;;;;;;;7.55;1.98;;;18.30;99.90;;;;;;5014855;28;20033;-66
2022/03/26 08:18:16;;;;;;;4.03;1.73;;;18.30;99.90;;;;;;5014437;28;20508;-65
2022/03/26 08:20:44;;;;;;;6.47;2.47;;;18.20;99.90;;;;;;5019636;28;20025;-66
2022/03/26 08:23:11;;;;;;;4.50;1.98;;;18.20;99.90;;;;;;5019574;28;20503;-66
2022/03/26 08:28:24;;;;;;;11.00;1.70;;;18.30;99.90;;;;;;5016836;28;20028;-71
2022/03/26 08:30:51;;;;;;;3.67;1.52;;;18.40;99.90;;;;;;5015926;28;20026;-67
2022/03/26 08:33:18;;;;;;;5.28;1.80;;;18.50;99.90;;;;;;5019688;28;20880;-67
2022/03/26 08:35:45;;;;;;;6.82;1.63;;;18.40;99.90;;;;;;5017132;28;20025;-68
2022/03/26 08:38:12;;;;;;;4.60;1.70;;;18.50;99.90;;;;;;5015929;28;20053;-69
2022/03/26 08:40:39;;;;;;;4.10;1.33;;;18.50;99.90;;;;;;5014927;28;20052;-70
2022/03/26 08:43:08;;;;;;;2.60;1.50;;;18.50;99.90;;;;;;5016955;28;20026;-70
2022/03/26 08:45:40;;;;;;;4.28;1.48;;;18.40;99.90;;;;;;5013023;28;20044;-70
2022/03/26 08:48:07;;;;;;;3.17;1.33;;;18.40;99.90;;;;;;5012735;28;20029;-66
2022/03/26 08:50:35;;;;;;;3.67;1.45;;;18.40;99.90;;;;;;5008736;28;20071;-66
2022/03/26 08:53:02;;;;;;;4.28;2.10;;;18.50;99.90;;;;;;5014255;28;20037;-70
2022/03/26 08:55:29;;;;;;;2.88;1.38;;;18.50;99.90;;;;;;5011771;28;20601;-67
2022/03/26 08:57:57;;;;;;;2.92;1.27;;;18.40;99.90;;;;;;5011192;28;20022;-66
2022/03/26 09:00:26;;;;;;;3.10;1.45;;;18.40;99.90;;;;;;5011405;28;20110;-66
2022/03/26 09:02:55;;;;;;;3.40;1.50;;;18.30;99.90;;;;;;5011913;28;20544;-66
2022/03/26 09:05:22;;;;;;;7.72;1.50;;;18.30;99.90;;;;;;5012400;28;20148;-67
2022/03/26 09:07:50;;;;;;;2.45;1.30;;;18.20;99.90;;;;;;5013535;28;20029;-68
2022/03/26 09:10:18;;;;;;;3.03;1.52;;;18.20;99.90;;;;;;5011803;28;20508;-67
2022/03/26 09:12:46;;;;;;;4.55;1.30;;;18.20;99.90;;;;;;5011454;28;20414;-66
2022/03/26 09:15:13;;;;;;;2.80;1.38;;;18.20;99.90;;;;;;5015085;28;20123;-67
2022/03/26 09:17:42;;;;;;;6.43;1.45;;;18.20;99.90;;;;;;5010438;28;20026;-66
2022/03/26 09:20:10;;;;;;;5.53;1.30;;;18.10;99.90;;;;;;5011955;28;20033;-67
2022/03/26 09:22:37;;;;;;;3.05;1.25;;;18.10;99.90;;;;;;5014758;28;20032;-66
2022/03/26 09:25:05;;;;;;;2.45;1.00;;;18.10;99.90;;;;;;5011557;28;20467;-65
2022/03/26 09:27:32;;;;;;;4.97;1.33;;;18.10;99.90;;;;;;5012298;28;20028;-66
2022/03/26 09:30:00;;;;;;;3.45;1.00;;;18.00;99.90;;;;;;5013816;28;20498;-66
2022/03/26 09:32:27;;;;;;;2.58;1.10;;;18.00;99.90;;;;;;5012383;28;20381;-65
2022/03/26 09:34:54;;;;;;;3.78;1.27;;;17.90;99.90;;;;;;5011914;28;20540;-67
2022/03/26 09:37:21;;;;;;;3.85;1.02;;;17.90;99.90;;;;;;5012495;28;20434;-66
2022/03/26 09:39:48;;;;;;;4.53;1.55;;;17.90;99.90;;;;;;5014235;28;20029;-66
2022/03/26 09:42:15;;;;;;;2.08;1.20;;;17.90;99.90;;;;;;5011633;28;20037;-67
2022/03/26 09:44:42;;;;;;;2.67;1.02;;;17.80;99.90;;;;;;5013420;28;20128;-66
2022/03/26 09:47:10;;;;;;;4.95;1.25;;;17.80;99.90;;;;;;5013119;28;20443;-67
2022/03/26 09:49:40;;;;;;;4.35;1.27;;;17.90;99.90;;;;;;5015165;28;20025;-66
2022/03/26 09:52:08;;;;;;;5.53;2.03;;;17.80;99.90;;;;;;5015632;28;20107;-69
2022/03/26 09:54:38;;;;;;;2.72;1.45;;;17.80;99.90;;;;;;5017696;28;20030;-67
2022/03/26 09:57:07;;;;;;;3.15;1.52;;;17.80;99.90;;;;;;5018628;28;20028;-66
2022/03/26 09:59:34;;;;;;;2.25;1.35;;;17.80;99.90;;;;;;5016748;28;20072;-66
2022/03/26 10:02:02;;;;;;;3.20;1.17;;;17.90;99.90;;;;;;5015267;28;20021;-66
2022/03/26 10:04:41;;;;;;;6.88;1.13;;;17.80;99.90;;;;;;5016243;28;20152;-66
2022/03/26 10:07:08;;;;;;;2.15;1.40;;;17.80;99.90;;;;;;5016818;28;20022;-66
2022/03/26 10:09:46;;;;;;;3.10;1.20;;;17.80;99.90;;;;;;5015781;28;20377;-66
2022/03/26 10:12:17;;;;;;;3.53;1.15;;;17.70;99.90;;;;;;5014187;28;20036;-69
2022/03/26 10:14:51;;;;;;;1.97;1.07;;;17.60;99.90;;;;;;5015652;28;20060;-70
2022/03/26 10:17:21;;;;;;;5.55;1.10;;;17.60;99.90;;;;;;5013382;28;20353;-68
2022/03/26 10:19:55;;;;;;;4.80;1.50;;;17.60;99.90;;;;;;5017431;28;20048;-66
2022/03/26 10:22:27;;;;;;;3.75;1.13;;;17.50;99.90;;;;;;5015985;28;20029;-66
2022/03/26 10:24:55;;;;;;;3.25;1.30;;;17.50;99.90;;;;;;4998453;28;20033;-67
2022/03/26 10:27:23;;;;;;;2.83;1.45;;;17.50;99.90;;;;;;5015181;28;20087;-66
2022/03/26 10:29:59;;;;;;;4.55;2.20;;;17.50;99.90;;;;;;5018776;28;20039;-67
2022/03/26 10:32:49;;;;;;;3.90;1.45;;;17.50;99.90;;;;;;5015934;28;20089;-66
2022/03/26 10:35:28;;;;;;;2.25;1.33;;;17.40;99.90;;;;;;5015968;28;20017;-64
2022/03/26 10:37:58;;;;;;;7.45;1.85;;;17.40;99.90;;;;;;5025597;23;20058;-65
2022/03/26 10:40:30;;;;;;;5.05;1.70;;;17.30;99.90;;;;;;4995988;28;20432;-65
2022/03/26 10:43:06;;;;;;;4.22;1.50;;;17.20;99.90;;;;;;4993634;28;20030;-67
2022/03/26 10:45:36;;;;;;;6.72;1.98;;;17.20;99.90;;;;;;4995615;28;20030;-65
2022/03/26 10:48:09;;;;;;;4.75;2.00;;;17.20;99.90;;;;;;4993853;28;20026;-65
2022/03/26 10:50:35;;;;;;;;;;;17.20;99.90;;;;;;4996966;28;20314;-65
2022/03/26 10:53:15;;;;;;;2.97;1.33;;;17.10;99.90;;;;;;4997900;28;19922;-65
2022/03/26 10:55:43;;;;;;;3.47;1.58;;;17.10;99.90;;;;;;4650418;28;10000490;-67
2022/03/26 10:58:10;;;;;;;5.43;1.80;;;17.10;99.90;;;;;;4995946;28;20058;-64
2022/03/26 11:00:37;;;;;;;4.47;1.63;;;17.10;99.90;;;;;;4994990;28;20452;-64
2022/03/26 11:03:05;;;;;;;5.15;1.63;;;17.10;99.90;;;;;;4994324;28;20373;-64
2022/03/26 11:05:33;;;;;;;3.10;1.40;;;17.00;99.90;;;;;;4995051;28;20034;-67
2022/03/26 11:08:02;;;;;;;4.82;1.50;;;17.00;99.90;;;;;;4996312;28;20432;-64
2022/03/26 11:10:31;;;;;;;3.15;1.90;;;17.00;99.90;;;;;;4995537;28;20025;-65
2022/03/26 11:13:00;;;;;;;2.85;1.55;;;17.00;99.90;;;;;;4994536;28;20471;-65
2022/03/26 11:15:38;;;;;;;3.55;1.70;;;16.90;99.90;;;;;;4995207;28;20018;-67
2022/03/26 11:18:18;;;;;;;4.18;1.58;;;16.90;99.90;;;;;;4996249;28;20540;-65
2022/03/26 11:21:08;;;;;;;4.65;2.13;;;16.80;99.90;;;;;;4995304;28;20100;-65
2022/03/26 11:24:19;;;;;;;4.35;2.85;;;16.80;99.90;;;;;;4996523;28;20081;-68
2022/03/26 11:27:05;;;;;;;4.50;2.13;;;16.80;99.90;;;;;;4940645;28;20031;-65
2022/03/26 11:29:32;;;;;;;6.57;2.72;;;16.70;99.90;;;;;;4941759;28;20043;-65
2022/03/26 11:32:12;;;;;;;7.28;3.35;;;16.70;99.90;;;;;;4939596;29;20043;-67
2022/03/26 11:34:39;;;;;;;6.75;3.13;;;16.70;99.90;;;;;;4938419;29;20468;-65
2022/03/26 11:37:22;;;;;;;11.18;3.83;;;16.60;99.90;;;;;;4940048;28;20059;-66
2022/03/26 11:39:56;;;;;;;7.90;3.38;;;16.60;99.90;;;;;;4941511;29;20031;-65
2022/03/26 11:42:41;;;;;;;8.77;3.70;;;16.60;99.90;;;;;;4941668;28;20074;-68
2022/03/26 11:51:17;;;;;;;5.13;3.72;;;16.60;99.90;;;;;;4941173;28;20259;-68
2022/03/26 11:53:44;;;;;;;7.00;3.20;;;16.60;99.90;;;;;;4924495;29;20099;-69
2022/03/26 11:56:22;;;;;;;5.93;3.05;;;16.60;99.90;;;;;;4939031;29;20031;-69
2022/03/26 11:59:05;;;;;;;5.95;2.97;;;16.50;99.90;;;;;;4998485;28;20026;-66
2022/03/26 12:01:41;;;;;;;3.72;2.40;;;16.50;99.90;;;;;;5000576;28;20044;-66
2022/03/26 12:04:13;;;;;;;4.55;1.92;;;16.50;99.90;;;;;;4999632;28;20034;-65
2022/03/26 12:06:47;;;;;;;3.03;2.50;;;16.50;99.90;;;;;;5000772;28;20038;-68
2022/03/26 12:09:37;;;;;;;6.05;1.95;;;16.50;99.90;;;;;;4997683;28;20061;-65
2022/03/26 12:12:15;;;;;;;3.80;1.63;;;16.50;99.90;;;;;;4999653;28;20040;-65
2022/03/26 12:15:05;;;;;;;4.63;1.88;;;16.50;99.90;;;;;;5000712;28;20021;-66
2022/03/26 12:17:54;;;;;;;4.35;1.70;;;16.50;99.90;;;;;;4997225;28;20108;-67
2022/03/26 12:20:43;;;;;;;2.58;1.58;;;16.40;99.90;;;;;;5001397;28;20180;-64
2022/03/26 12:23:13;;;;;;;5.22;2.10;;;16.50;99.90;;;;;;5000708;28;20029;-65
2022/03/26 12:25:51;;;;;;;5.97;1.90;;;16.50;99.90;;;;;;4998523;28;20591;-66
2022/03/26 12:28:25;;;;;;;4.13;2.55;;;16.40;99.90;;;;;;4995564;28;20057;-65
2022/03/26 12:30:55;;;;;;;4.65;2.10;;;16.40;99.90;;;;;;4994132;28;20548;-65
2022/03/26 12:33:24;;;;;;;8.50;2.47;;;16.40;99.90;;;;;;4996417;28;20057;-65
2022/03/26 12:35:55;;;;;;;2.35;1.50;;;16.40;99.90;;;;;;4998445;28;20038;-65
2022/03/26 12:38:28;;;;;;;6.13;1.80;;;16.50;99.90;;;;;;5013752;28;20810;-65
2022/03/26 12:40:59;;;;;;;2.70;1.83;;;16.50;99.90;;;;;;5013044;28;20346;-66
2022/03/26 12:43:27;;;;;;;3.80;1.70;;;16.50;99.90;;;;;;5015686;28;20030;-65
2022/03/26 12:45:56;;;;;;;7.68;1.88;;;16.50;99.90;;;;;;5009948;28;20495;-68
2022/03/26 12:48:26;;;;;;;5.35;2.25;;;16.60;99.90;;;;;;5017000;28;20025;-64
2022/03/26 12:50:54;;;;;;;3.95;1.90;;;16.60;99.90;;;;;;5016153;28;20530;-66
2022/03/26 12:53:21;;;;;;;3.95;1.58;;;16.60;99.90;;;;;;5015414;28;20041;-69
2022/03/26 12:55:56;;;;;;;4.45;2.08;;;16.60;99.90;;;;;;5015920;28;20020;-66
2022/03/26 13:01:14;;;;;;;3.45;2.00;;;16.70;99.90;;;;;;5018259;28;20384;-68
2022/03/26 13:03:42;;;;;;;7.20;1.88;;;16.80;99.90;;;;;;5024067;28;20030;-69
2022/03/26 13:06:11;;;;;;;3.45;1.73;;;16.80;99.90;;;;;;5020753;28;20483;-70